sensor_id;sensor_type;location;lat;lon;timestamp;temperature;humidity
10411;DHT22;5251;52.112;8.606;2023-04-01T00:00:18;13.00;99.90
10411;DHT22;5251;52.112;8.606;2023-04-01T00:02:43;13.00;99.90
10411;DHT22;5251;52.112;8.606;2023-04-01T00:05:10;13.00;99.90
10411;DHT22;5251;52.112;8.606;2023-04-01T00:07:37;13.00;99.90
10411;DHT22;5251;52.112;8.606;2023-04-01T00:10:04;13.00;99.90
10411;DHT22;5251;52.112;8.606;2023-04-01T00:12:30;13.00;99.90
10411;DHT22;5251;52.112;8.606;2023-04-01T00:14:56;12.90;99.90
10411;DHT22;5251;52.112;8.606;2023-04-01T00:17:21;12.90;99.90
10411;DHT22;5251;52.112;8.606;2023-04-01T00:19:47;12.90;99.90
10411;DHT22;5251;52.112;8.606;2023-04-01T00:22:13;12.90;99.90
10411;DHT22;5251;52.112;8.606;2023-04-01T00:24:39;13.00;99.90
10411;DHT22;5251;52.112;8.606;2023-04-01T00:27:05;12.90;99.90
10411;DHT22;5251;52.112;8.606;2023-04-01T00:29:31;12.90;99.90
10411;DHT22;5251;52.112;8.606;2023-04-01T00:31:57;12.90;99.90
10411;DHT22;5251;52.112;8.606;2023-04-01T00:34:23;12.90;99.90
10411;DHT22;5251;52.112;8.606;2023-04-01T00:36:49;12.90;99.90
10411;DHT22;5251;52.112;8.606;2023-04-01T00:39:16;12.90;99.90
10411;DHT22;5251;52.112;8.606;2023-04-01T00:41:41;12.80;99.90
10411;DHT22;5251;52.112;8.606;2023-04-01T00:44:23;12.80;99.90
10411;DHT22;5251;52.112;8.606;2023-04-01T00:46:50;12.80;99.90
10411;DHT22;5251;52.112;8.606;2023-04-01T00:49:17;12.80;99.90
10411;DHT22;5251;52.112;8.606;2023-04-01T00:51:45;12.80;99.90
10411;DHT22;5251;52.112;8.606;2023-04-01T00:54:14;12.80;99.90
10411;DHT22;5251;52.112;8.606;2023-04-01T00:56:49;12.80;99.90
10411;DHT22;5251;52.112;8.606;2023-04-01T00:59:23;12.70;99.90
10411;DHT22;5251;52.112;8.606;2023-04-01T01:01:50;12.70;99.90
10411;DHT22;5251;52.112;8.606;2023-04-01T01:04:26;12.80;99.90
10411;DHT22;5251;52.112;8.606;2023-04-01T01:09:55;12.70;99.90
10411;DHT22;5251;52.112;8.606;2023-04-01T01:15:09;12.70;99.90
10411;DHT22;5251;52.112;8.606;2023-04-01T01:18:03;12.70;99.90
10411;DHT22;5251;52.112;8.606;2023-04-01T01:24:00;12.70;99.90
10411;DHT22;5251;52.112;8.606;2023-04-01T01:35:07;12.70;99.90
10411;DHT22;5251;52.112;8.606;2023-04-01T01:37:37;12.70;99.90
10411;DHT22;5251;52.112;8.606;2023-04-01T01:40:07;12.70;99.90
10411;DHT22;5251;52.112;8.606;2023-04-01T01:42:37;12.70;99.90
10411;DHT22;5251;52.112;8.606;2023-04-01T01:45:05;12.70;99.90
10411;DHT22;5251;52.112;8.606;2023-04-01T01:47:33;12.70;99.90
10411;DHT22;5251;52.112;8.606;2023-04-01T01:50:00;12.70;99.90
10411;DHT22;5251;52.112;8.606;2023-04-01T01:52:29;12.70;99.90
10411;DHT22;5251;52.112;8.606;2023-04-01T01:54:57;12.70;99.90
10411;DHT22;5251;52.112;8.606;2023-04-01T01:57:32;12.70;99.90
10411;DHT22;5251;52.112;8.606;2023-04-01T02:00:04;12.70;99.90
10411;DHT22;5251;52.112;8.606;2023-04-01T02:02:39;12.70;99.90
10411;DHT22;5251;52.112;8.606;2023-04-01T02:05:06;12.70;99.90
10411;DHT22;5251;52.112;8.606;2023-04-01T02:07:35;12.80;99.90
10411;DHT22;5251;52.112;8.606;2023-04-01T02:10:03;12.80;99.90
10411;DHT22;5251;52.112;8.606;2023-04-01T02:12:30;12.80;99.90
10411;DHT22;5251;52.112;8.606;2023-04-01T02:15:00;12.80;99.90
10411;DHT22;5251;52.112;8.606;2023-04-01T02:17:29;12.80;99.90
10411;DHT22;5251;52.112;8.606;2023-04-01T02:19:59;12.80;99.90
10411;DHT22;5251;52.112;8.606;2023-04-01T02:22:28;12.70;99.90
10411;DHT22;5251;52.112;8.606;2023-04-01T02:24:59;12.70;99.90
10411;DHT22;5251;52.112;8.606;2023-04-01T02:27:25;12.80;99.90
10411;DHT22;5251;52.112;8.606;2023-04-01T02:29:52;12.70;99.90
10411;DHT22;5251;52.112;8.606;2023-04-01T02:32:19;12.70;99.90
10411;DHT22;5251;52.112;8.606;2023-04-01T02:34:46;12.70;99.90
10411;DHT22;5251;52.112;8.606;2023-04-01T02:37:12;12.70;99.90
10411;DHT22;5251;52.112;8.606;2023-04-01T02:39:38;12.70;99.90
10411;DHT22;5251;52.112;8.606;2023-04-01T02:42:04;12.70;99.90
10411;DHT22;5251;52.112;8.606;2023-04-01T02:44:29;12.70;99.90
10411;DHT22;5251;52.112;8.606;2023-04-01T02:46:55;12.70;99.90
10411;DHT22;5251;52.112;8.606;2023-04-01T02:49:20;12.70;99.90
10411;DHT22;5251;52.112;8.606;2023-04-01T02:51:46;12.60;99.90
10411;DHT22;5251;52.112;8.606;2023-04-01T02:54:12;12.60;99.90
10411;DHT22;5251;52.112;8.606;2023-04-01T02:56:38;12.60;99.90
10411;DHT22;5251;52.112;8.606;2023-04-01T02:59:03;12.70;99.90
10411;DHT22;5251;52.112;8.606;2023-04-01T03:01:29;12.60;99.90
10411;DHT22;5251;52.112;8.606;2023-04-01T03:03:54;12.60;99.90
10411;DHT22;5251;52.112;8.606;2023-04-01T03:06:20;12.70;99.90
10411;DHT22;5251;52.112;8.606;2023-04-01T03:08:46;12.60;99.90
10411;DHT22;5251;52.112;8.606;2023-04-01T03:11:12;12.60;99.90
10411;DHT22;5251;52.112;8.606;2023-04-01T03:13:38;12.60;99.90
10411;DHT22;5251;52.112;8.606;2023-04-01T03:16:04;12.60;99.90
10411;DHT22;5251;52.112;8.606;2023-04-01T03:18:29;12.60;99.90
10411;DHT22;5251;52.112;8.606;2023-04-01T03:20:55;12.70;99.90
10411;DHT22;5251;52.112;8.606;2023-04-01T03:23:20;12.70;99.90
10411;DHT22;5251;52.112;8.606;2023-04-01T03:25:47;12.70;99.90
10411;DHT22;5251;52.112;8.606;2023-04-01T03:28:13;12.60;99.90
10411;DHT22;5251;52.112;8.606;2023-04-01T03:30:39;12.70;99.90
10411;DHT22;5251;52.112;8.606;2023-04-01T03:33:05;12.70;99.90
10411;DHT22;5251;52.112;8.606;2023-04-01T03:35:31;12.70;99.90
10411;DHT22;5251;52.112;8.606;2023-04-01T03:37:56;12.70;99.90
10411;DHT22;5251;52.112;8.606;2023-04-01T03:40:22;12.70;99.90
10411;DHT22;5251;52.112;8.606;2023-04-01T03:42:48;12.70;99.90
10411;DHT22;5251;52.112;8.606;2023-04-01T03:45:14;12.70;99.90
10411;DHT22;5251;52.112;8.606;2023-04-01T03:47:40;12.70;99.90
10411;DHT22;5251;52.112;8.606;2023-04-01T03:50:06;12.70;99.90
10411;DHT22;5251;52.112;8.606;2023-04-01T03:52:32;12.70;99.90
10411;DHT22;5251;52.112;8.606;2023-04-01T03:54:58;12.70;99.90
10411;DHT22;5251;52.112;8.606;2023-04-01T03:57:24;12.70;99.90
10411;DHT22;5251;52.112;8.606;2023-04-01T03:59:49;12.70;99.90
10411;DHT22;5251;52.112;8.606;2023-04-01T04:02:15;12.70;99.90
10411;DHT22;5251;52.112;8.606;2023-04-01T04:04:41;12.70;99.90
10411;DHT22;5251;52.112;8.606;2023-04-01T04:07:06;12.70;99.90
10411;DHT22;5251;52.112;8.606;2023-04-01T04:09:32;12.70;99.90
10411;DHT22;5251;52.112;8.606;2023-04-01T04:11:58;12.70;99.90
10411;DHT22;5251;52.112;8.606;2023-04-01T04:14:24;12.70;99.90
10411;DHT22;5251;52.112;8.606;2023-04-01T04:16:50;12.70;99.90
10411;DHT22;5251;52.112;8.606;2023-04-01T04:19:15;12.70;99.90
10411;DHT22;5251;52.112;8.606;2023-04-01T04:21:41;12.70;99.90
10411;DHT22;5251;52.112;8.606;2023-04-01T04:24:07;12.70;99.90
10411;DHT22;5251;52.112;8.606;2023-04-01T04:26:33;12.70;99.90
10411;DHT22;5251;52.112;8.606;2023-04-01T04:28:59;12.70;99.90
10411;DHT22;5251;52.112;8.606;2023-04-01T04:31:25;12.60;99.90
10411;DHT22;5251;52.112;8.606;2023-04-01T04:33:51;12.70;99.90
10411;DHT22;5251;52.112;8.606;2023-04-01T04:36:18;12.70;99.90
10411;DHT22;5251;52.112;8.606;2023-04-01T04:38:44;12.70;99.90
10411;DHT22;5251;52.112;8.606;2023-04-01T04:41:11;12.70;99.90
10411;DHT22;5251;52.112;8.606;2023-04-01T04:43:39;12.70;99.90
10411;DHT22;5251;52.112;8.606;2023-04-01T04:46:09;12.70;99.90
10411;DHT22;5251;52.112;8.606;2023-04-01T04:48:35;12.70;99.90
10411;DHT22;5251;52.112;8.606;2023-04-01T04:51:01;12.70;99.90
10411;DHT22;5251;52.112;8.606;2023-04-01T04:53:27;12.70;99.90
10411;DHT22;5251;52.112;8.606;2023-04-01T04:55:53;12.70;99.90
10411;DHT22;5251;52.112;8.606;2023-04-01T04:58:19;12.70;99.90
10411;DHT22;5251;52.112;8.606;2023-04-01T05:00:45;12.70;99.90
10411;DHT22;5251;52.112;8.606;2023-04-01T05:03:11;12.70;99.90
10411;DHT22;5251;52.112;8.606;2023-04-01T05:05:38;12.70;99.90
10411;DHT22;5251;52.112;8.606;2023-04-01T05:08:04;12.70;99.90
10411;DHT22;5251;52.112;8.606;2023-04-01T05:10:29;12.70;99.90
10411;DHT22;5251;52.112;8.606;2023-04-01T05:12:55;12.70;99.90
10411;DHT22;5251;52.112;8.606;2023-04-01T05:15:21;12.70;99.90
10411;DHT22;5251;52.112;8.606;2023-04-01T05:17:47;12.70;99.90
10411;DHT22;5251;52.112;8.606;2023-04-01T05:20:13;12.60;99.90
10411;DHT22;5251;52.112;8.606;2023-04-01T05:22:39;12.60;99.90
10411;DHT22;5251;52.112;8.606;2023-04-01T05:25:05;12.70;99.90
10411;DHT22;5251;52.112;8.606;2023-04-01T05:27:31;12.60;99.90
10411;DHT22;5251;52.112;8.606;2023-04-01T05:29:57;12.60;99.90
10411;DHT22;5251;52.112;8.606;2023-04-01T05:32:23;12.60;99.90
10411;DHT22;5251;52.112;8.606;2023-04-01T05:34:51;12.60;99.90
10411;DHT22;5251;52.112;8.606;2023-04-01T05:37:16;12.60;99.90
10411;DHT22;5251;52.112;8.606;2023-04-01T05:39:42;12.60;99.90
10411;DHT22;5251;52.112;8.606;2023-04-01T05:42:08;12.60;99.90
10411;DHT22;5251;52.112;8.606;2023-04-01T05:44:34;12.60;99.90
10411;DHT22;5251;52.112;8.606;2023-04-01T05:47:00;12.60;99.90
10411;DHT22;5251;52.112;8.606;2023-04-01T05:49:26;12.60;99.90
10411;DHT22;5251;52.112;8.606;2023-04-01T05:51:51;12.60;99.90
10411;DHT22;5251;52.112;8.606;2023-04-01T05:54:17;12.60;99.90
10411;DHT22;5251;52.112;8.606;2023-04-01T05:56:43;12.60;99.90
10411;DHT22;5251;52.112;8.606;2023-04-01T05:59:11;12.60;99.90
10411;DHT22;5251;52.112;8.606;2023-04-01T06:01:37;12.70;99.90
10411;DHT22;5251;52.112;8.606;2023-04-01T06:04:03;12.60;99.90
10411;DHT22;5251;52.112;8.606;2023-04-01T06:06:30;12.70;99.90
10411;DHT22;5251;52.112;8.606;2023-04-01T06:09:04;12.70;99.90
10411;DHT22;5251;52.112;8.606;2023-04-01T06:14:44;12.70;99.90
10411;DHT22;5251;52.112;8.606;2023-04-01T06:17:38;12.70;99.90
10411;DHT22;5251;52.112;8.606;2023-04-01T06:43:50;13.10;99.90
10411;DHT22;5251;52.112;8.606;2023-04-01T06:46:42;13.10;99.90
10411;DHT22;5251;52.112;8.606;2023-04-01T06:52:24;13.20;99.90
10411;DHT22;5251;52.112;8.606;2023-04-01T06:55:27;13.30;99.90
10411;DHT22;5251;52.112;8.606;2023-04-01T06:57:57;13.50;99.90
10411;DHT22;5251;52.112;8.606;2023-04-01T07:00:36;13.50;99.90
10411;DHT22;5251;52.112;8.606;2023-04-01T07:05:47;13.70;99.90
10411;DHT22;5251;52.112;8.606;2023-04-01T07:08:21;13.80;99.90
10411;DHT22;5251;52.112;8.606;2023-04-01T07:10:58;13.80;99.90
10411;DHT22;5251;52.112;8.606;2023-04-01T07:13:45;13.90;99.90
10411;DHT22;5251;52.112;8.606;2023-04-01T07:16:36;14.00;99.90
10411;DHT22;5251;52.112;8.606;2023-04-01T07:21:48;14.10;99.90
10411;DHT22;5251;52.112;8.606;2023-04-01T07:24:20;14.10;99.90
10411;DHT22;5251;52.112;8.606;2023-04-01T07:26:55;14.10;99.90
10411;DHT22;5251;52.112;8.606;2023-04-01T07:29:21;14.20;99.90
10411;DHT22;5251;52.112;8.606;2023-04-01T07:32:06;14.10;99.90
10411;DHT22;5251;52.112;8.606;2023-04-01T07:34:51;14.10;99.90
10411;DHT22;5251;52.112;8.606;2023-04-01T07:37:39;14.10;99.90
10411;DHT22;5251;52.112;8.606;2023-04-01T07:48:26;14.10;99.90
10411;DHT22;5251;52.112;8.606;2023-04-01T07:51:03;14.10;99.90
10411;DHT22;5251;52.112;8.606;2023-04-01T08:09:11;14.10;99.90
10411;DHT22;5251;52.112;8.606;2023-04-01T08:17:38;14.10;99.90
10411;DHT22;5251;52.112;8.606;2023-04-01T08:20:14;14.10;99.90
10411;DHT22;5251;52.112;8.606;2023-04-01T08:22:48;14.10;99.90
10411;DHT22;5251;52.112;8.606;2023-04-01T08:25:26;14.20;99.90
10411;DHT22;5251;52.112;8.606;2023-04-01T08:28:13;14.20;99.90
10411;DHT22;5251;52.112;8.606;2023-04-01T08:31:05;14.20;99.90
10411;DHT22;5251;52.112;8.606;2023-04-01T08:33:33;14.20;99.90
10411;DHT22;5251;52.112;8.606;2023-04-01T08:38:31;14.30;99.90
10411;DHT22;5251;52.112;8.606;2023-04-01T08:51:55;14.50;99.90
10411;DHT22;5251;52.112;8.606;2023-04-01T09:02:39;14.60;99.90
10411;DHT22;5251;52.112;8.606;2023-04-01T09:11:11;14.90;99.90
10411;DHT22;5251;52.112;8.606;2023-04-01T09:16:27;15.20;99.90
10411;DHT22;5251;52.112;8.606;2023-04-01T09:22:09;15.50;99.90
10411;DHT22;5251;52.112;8.606;2023-04-01T09:27:32;16.00;99.90
10411;DHT22;5251;52.112;8.606;2023-04-01T09:35:50;16.40;99.90
10411;DHT22;5251;52.112;8.606;2023-04-01T09:38:56;16.50;99.90
10411;DHT22;5251;52.112;8.606;2023-04-01T09:41:32;16.60;99.90
10411;DHT22;5251;52.112;8.606;2023-04-01T09:44:02;16.70;99.90
10411;DHT22;5251;52.112;8.606;2023-04-01T09:46:55;16.80;99.90
10411;DHT22;5251;52.112;8.606;2023-04-01T09:55:19;17.10;99.90
10411;DHT22;5251;52.112;8.606;2023-04-01T10:43:33;18.20;99.90
10411;DHT22;5251;52.112;8.606;2023-04-01T10:51:49;18.30;99.90
10411;DHT22;5251;52.112;8.606;2023-04-01T11:22:57;17.90;99.90
10411;DHT22;5251;52.112;8.606;2023-04-01T11:25:56;18.00;99.90
10411;DHT22;5251;52.112;8.606;2023-04-01T11:28:37;18.00;99.90
10411;DHT22;5251;52.112;8.606;2023-04-01T11:31:26;18.10;99.90
10411;DHT22;5251;52.112;8.606;2023-04-01T11:40:05;18.40;99.90
10411;DHT22;5251;52.112;8.606;2023-04-01T11:42:47;18.40;99.80
10411;DHT22;5251;52.112;8.606;2023-04-01T11:45:36;18.30;99.10
10411;DHT22;5251;52.112;8.606;2023-04-01T11:48:38;18.30;99.40
10411;DHT22;5251;52.112;8.606;2023-04-01T11:51:45;18.20;99.50
10411;DHT22;5251;52.112;8.606;2023-04-01T12:05:37;18.10;99.90
10411;DHT22;5251;52.112;8.606;2023-04-01T12:11:17;18.20;99.90
10411;DHT22;5251;52.112;8.606;2023-04-01T12:13:59;18.30;99.90
10411;DHT22;5251;52.112;8.606;2023-04-01T12:19:09;18.50;99.90
10411;DHT22;5251;52.112;8.606;2023-04-01T12:21:36;18.70;99.90
10411;DHT22;5251;52.112;8.606;2023-04-01T12:27:11;19.00;99.90
10411;DHT22;5251;52.112;8.606;2023-04-01T12:35:26;19.40;99.60
10411;DHT22;5251;52.112;8.606;2023-04-01T12:44:04;19.70;98.60
10411;DHT22;5251;52.112;8.606;2023-04-01T12:47:20;19.80;98.70
10411;DHT22;5251;52.112;8.606;2023-04-01T12:52:18;19.90;98.90
10411;DHT22;5251;52.112;8.606;2023-04-01T13:08:02;20.30;97.60
10411;DHT22;5251;52.112;8.606;2023-04-01T13:13:57;20.40;96.90
10411;DHT22;5251;52.112;8.606;2023-04-01T13:19:30;20.50;96.60
10411;DHT22;5251;52.112;8.606;2023-04-01T13:22:09;20.60;97.30
10411;DHT22;5251;52.112;8.606;2023-04-01T13:27:40;20.70;96.30
10411;DHT22;5251;52.112;8.606;2023-04-01T13:33:08;20.70;96.70
10411;DHT22;5251;52.112;8.606;2023-04-01T13:41:42;21.00;96.80
10411;DHT22;5251;52.112;8.606;2023-04-01T13:44:28;21.10;95.80
10411;DHT22;5251;52.112;8.606;2023-04-01T13:52:30;21.20;94.60
10411;DHT22;5251;52.112;8.606;2023-04-01T13:55:38;21.30;95.20
10411;DHT22;5251;52.112;8.606;2023-04-01T13:58:42;21.30;94.20
10411;DHT22;5251;52.112;8.606;2023-04-01T14:04:11;21.40;94.10
10411;DHT22;5251;52.112;8.606;2023-04-01T14:06:51;21.40;93.70
10411;DHT22;5251;52.112;8.606;2023-04-01T14:20:39;21.40;93.20
10411;DHT22;5251;52.112;8.606;2023-04-01T14:23:50;21.40;93.40
10411;DHT22;5251;52.112;8.606;2023-04-01T14:26:22;21.30;93.30
10411;DHT22;5251;52.112;8.606;2023-04-01T14:42:55;20.90;92.40
10411;DHT22;5251;52.112;8.606;2023-04-01T14:45:50;20.70;92.60
10411;DHT22;5251;52.112;8.606;2023-04-01T14:48:39;20.60;93.00
10411;DHT22;5251;52.112;8.606;2023-04-01T14:54:13;20.40;93.20
10411;DHT22;5251;52.112;8.606;2023-04-01T14:56:43;20.20;93.50
10411;DHT22;5251;52.112;8.606;2023-04-01T14:59:32;20.20;93.70
10411;DHT22;5251;52.112;8.606;2023-04-01T15:02:14;20.10;93.40
10411;DHT22;5251;52.112;8.606;2023-04-01T15:05:32;20.00;93.00
10411;DHT22;5251;52.112;8.606;2023-04-01T15:27:12;19.20;94.20
10411;DHT22;5251;52.112;8.606;2023-04-01T15:32:17;18.90;94.30
10411;DHT22;5251;52.112;8.606;2023-04-01T15:35:00;18.80;94.50
10411;DHT22;5251;52.112;8.606;2023-04-01T15:40:27;18.60;95.40
10411;DHT22;5251;52.112;8.606;2023-04-01T15:43:20;18.40;95.30
10411;DHT22;5251;52.112;8.606;2023-04-01T15:57:01;17.40;96.20
10411;DHT22;5251;52.112;8.606;2023-04-01T16:00:23;17.20;96.50
10411;DHT22;5251;52.112;8.606;2023-04-01T16:06:24;16.70;96.70
10411;DHT22;5251;52.112;8.606;2023-04-01T16:12:01;16.40;97.70
10411;DHT22;5251;52.112;8.606;2023-04-01T16:19:59;15.90;99.60
10411;DHT22;5251;52.112;8.606;2023-04-01T16:22:38;15.80;99.60
10411;DHT22;5251;52.112;8.606;2023-04-01T16:28:04;15.60;99.90
10411;DHT22;5251;52.112;8.606;2023-04-01T16:30:46;15.50;99.90
10411;DHT22;5251;52.112;8.606;2023-04-01T16:33:21;15.50;99.90
10411;DHT22;5251;52.112;8.606;2023-04-01T16:38:38;15.30;99.90
10411;DHT22;5251;52.112;8.606;2023-04-01T16:41:24;15.20;99.90
10411;DHT22;5251;52.112;8.606;2023-04-01T16:43:56;15.00;99.80
10411;DHT22;5251;52.112;8.606;2023-04-01T16:46:35;14.80;99.90
10411;DHT22;5251;52.112;8.606;2023-04-01T16:51:54;14.60;99.90
10411;DHT22;5251;52.112;8.606;2023-04-01T16:57:17;14.20;99.90
10411;DHT22;5251;52.112;8.606;2023-04-01T17:00:21;14.00;99.90
10411;DHT22;5251;52.112;8.606;2023-04-01T17:06:31;13.80;99.90
10411;DHT22;5251;52.112;8.606;2023-04-01T17:08:50;13.60;99.90
10411;DHT22;5251;52.112;8.606;2023-04-01T17:11:27;13.50;99.90
10411;DHT22;5251;52.112;8.606;2023-04-01T17:19:56;13.20;99.90
10411;DHT22;5251;52.112;8.606;2023-04-01T17:22:53;13.10;99.90
10411;DHT22;5251;52.112;8.606;2023-04-01T17:25:38;13.00;99.90
10411;DHT22;5251;52.112;8.606;2023-04-01T17:39:19;12.80;99.90
10411;DHT22;5251;52.112;8.606;2023-04-01T17:47:11;12.60;99.90
10411;DHT22;5251;52.112;8.606;2023-04-01T17:50:14;12.50;99.90
10411;DHT22;5251;52.112;8.606;2023-04-01T17:52:59;12.50;99.90
10411;DHT22;5251;52.112;8.606;2023-04-01T18:09:46;12.00;99.90
10411;DHT22;5251;52.112;8.606;2023-04-01T18:21:44;11.80;99.90
10411;DHT22;5251;52.112;8.606;2023-04-01T18:23:50;11.70;99.90
10411;DHT22;5251;52.112;8.606;2023-04-01T18:26:28;11.60;99.90
10411;DHT22;5251;52.112;8.606;2023-04-01T18:29:18;11.50;99.90
10411;DHT22;5251;52.112;8.606;2023-04-01T18:31:51;11.50;99.90
10411;DHT22;5251;52.112;8.606;2023-04-01T18:34:36;11.40;99.90
10411;DHT22;5251;52.112;8.606;2023-04-01T18:37:21;11.30;99.90
10411;DHT22;5251;52.112;8.606;2023-04-01T18:40:00;11.20;99.90
10411;DHT22;5251;52.112;8.606;2023-04-01T18:42:44;11.20;99.90
10411;DHT22;5251;52.112;8.606;2023-04-01T18:50:56;11.00;99.90
10411;DHT22;5251;52.112;8.606;2023-04-01T18:53:49;10.90;99.90
10411;DHT22;5251;52.112;8.606;2023-04-01T18:56:34;10.90;99.90
10411;DHT22;5251;52.112;8.606;2023-04-01T19:01:36;10.80;99.90
10411;DHT22;5251;52.112;8.606;2023-04-01T19:06:59;10.70;99.90
10411;DHT22;5251;52.112;8.606;2023-04-01T19:09:44;10.70;99.90
10411;DHT22;5251;52.112;8.606;2023-04-01T19:27:03;10.30;99.90
10411;DHT22;5251;52.112;8.606;2023-04-01T19:29:51;10.20;99.90
10411;DHT22;5251;52.112;8.606;2023-04-01T19:38:31;10.10;99.90
10411;DHT22;5251;52.112;8.606;2023-04-01T19:46:55;10.00;99.90
10411;DHT22;5251;52.112;8.606;2023-04-01T19:49:42;10.00;99.90
10411;DHT22;5251;52.112;8.606;2023-04-01T19:52:41;9.90;99.90
10411;DHT22;5251;52.112;8.606;2023-04-01T20:00:53;9.80;99.90
10411;DHT22;5251;52.112;8.606;2023-04-01T20:06:59;9.80;99.90
10411;DHT22;5251;52.112;8.606;2023-04-01T20:11:55;9.80;99.90
10411;DHT22;5251;52.112;8.606;2023-04-01T20:14:32;9.70;99.90
10411;DHT22;5251;52.112;8.606;2023-04-01T20:17:17;9.70;99.90
10411;DHT22;5251;52.112;8.606;2023-04-01T20:20:00;9.70;99.90
10411;DHT22;5251;52.112;8.606;2023-04-01T20:25:23;9.70;99.90
10411;DHT22;5251;52.112;8.606;2023-04-01T20:36:12;9.60;99.90
10411;DHT22;5251;52.112;8.606;2023-04-01T20:38:37;9.50;99.90
10411;DHT22;5251;52.112;8.606;2023-04-01T20:41:20;9.60;99.90
10411;DHT22;5251;52.112;8.606;2023-04-01T20:44:04;9.60;99.90
10411;DHT22;5251;52.112;8.606;2023-04-01T20:55:04;9.50;99.90
10411;DHT22;5251;52.112;8.606;2023-04-01T21:03:28;9.30;99.90
10411;DHT22;5251;52.112;8.606;2023-04-01T21:14:53;9.20;99.90
10411;DHT22;5251;52.112;8.606;2023-04-01T21:17:58;9.10;99.90
10411;DHT22;5251;52.112;8.606;2023-04-01T21:21:13;9.10;99.90
10411;DHT22;5251;52.112;8.606;2023-04-01T21:32:05;8.80;99.90
10411;DHT22;5251;52.112;8.606;2023-04-01T21:34:48;8.80;99.90
10411;DHT22;5251;52.112;8.606;2023-04-01T21:37:33;8.70;99.90
10411;DHT22;5251;52.112;8.606;2023-04-01T21:40:29;8.70;99.90
10411;DHT22;5251;52.112;8.606;2023-04-01T22:04:51;8.50;99.90
10411;DHT22;5251;52.112;8.606;2023-04-01T22:07:21;8.40;99.90
10411;DHT22;5251;52.112;8.606;2023-04-01T22:13:16;8.40;99.90
10411;DHT22;5251;52.112;8.606;2023-04-01T22:18:57;8.40;99.90
10411;DHT22;5251;52.112;8.606;2023-04-01T22:24:20;8.30;99.90
10411;DHT22;5251;52.112;8.606;2023-04-01T22:27:18;8.40;99.90
10411;DHT22;5251;52.112;8.606;2023-04-01T22:30:08;8.30;99.90
10411;DHT22;5251;52.112;8.606;2023-04-01T22:32:43;8.30;99.90
10411;DHT22;5251;52.112;8.606;2023-04-01T22:40:42;8.30;99.90
10411;DHT22;5251;52.112;8.606;2023-04-01T22:43:20;8.20;99.90
10411;DHT22;5251;52.112;8.606;2023-04-01T22:48:46;8.10;99.90
10411;DHT22;5251;52.112;8.606;2023-04-01T22:54:08;8.00;99.90
10411;DHT22;5251;52.112;8.606;2023-04-01T22:56:49;8.00;99.90
10411;DHT22;5251;52.112;8.606;2023-04-01T22:59:46;8.00;99.90
10411;DHT22;5251;52.112;8.606;2023-04-01T23:04:49;8.00;99.90
10411;DHT22;5251;52.112;8.606;2023-04-01T23:07:33;7.90;99.90
10411;DHT22;5251;52.112;8.606;2023-04-01T23:10:05;7.90;99.90
10411;DHT22;5251;52.112;8.606;2023-04-01T23:12:37;7.90;99.90
10411;DHT22;5251;52.112;8.606;2023-04-01T23:15:04;7.90;99.90
10411;DHT22;5251;52.112;8.606;2023-04-01T23:29:00;7.70;99.90
10411;DHT22;5251;52.112;8.606;2023-04-01T23:31:38;7.70;99.90
10411;DHT22;5251;52.112;8.606;2023-04-01T23:36:46;7.60;99.90
10411;DHT22;5251;52.112;8.606;2023-04-01T23:39:26;7.60;99.90
10411;DHT22;5251;52.112;8.606;2023-04-01T23:41:56;7.50;99.90
10411;DHT22;5251;52.112;8.606;2023-04-01T23:44:24;7.50;99.90
10411;DHT22;5251;52.112;8.606;2023-04-01T23:46:51;7.50;99.90
10411;DHT22;5251;52.112;8.606;2023-04-01T23:49:28;7.50;99.90
10411;DHT22;5251;52.112;8.606;2023-04-01T23:54:49;7.50;99.90
10411;DHT22;5251;52.112;8.606;2023-04-01T23:57:22;7.40;99.90
